Cruise inventory

FRV Clupea 0589C_2

Cruise summary report

Cruise Info. 
Ship name (ship code)FRV Clupea (74CU)
Cruise identifier0589C_2
Cruise period1989-04-30 — 1989-05-05
StatusCompleted
Port of departureTroon, United Kingdom
Port of returnCampbeltown, United Kingdom
ObjectivesTo locate and examine the physical and chemical structure of the front between the Firth of Clyde and the North Channel.
Chief scientistPhilip W Balls (Scottish Office Agriculture and Fisheries Department Aberdeen Marine Laboratory)
Cruise reportFRV Clupea 0589C_2 cruise report cl5_89part2.pdf — access key 'C' (0.04 MB) 
Ocean/sea areas 
GeneralInner Seas off the West Coast of Scotland
SpecificFirth of Clyde and the North Channel
Measurements 
Physical oceanography 
Surface measurements underway (T,S)Quantity: track kilometres = 555.6
CTD stationsQuantity: number of profiles = 64
Surface drifters/drifting buoysDescription: parachute drogues.
Chemical oceanography 
NitrateQuantity: number of stations = 27
Trace elementsQuantity: number of stations = 33
Contamination 
Suspended matterQuantity: number of stations = 33
Biology and fisheries 
Particulate organic matter (inc POC, PON)Quantity: number of stations = 33
Description: POC, PON
Data held at BODC 
Series/Profiles 
61  CTD/STD cast
Density of the water column
Electrical conductivity of the water column
Vertical spatial coordinates
Salinity of the water column
Temperature of the water column
Density of the water column
Electrical conductivity of the water column
Vertical spatial coordinates
Salinity of the water column
Temperature of the water column

BODC idDate/TimeLocationDoc.
3985141989-05-02 09:10 55° 18' 28" N  5° 7' 0" W  View metadata report for BODC series reference number 398514
3985261989-05-02 09:27 55° 17' 0" N  5° 9' 0" W  View metadata report for BODC series reference number 398526
3985381989-05-02 09:44 55° 15' 31" N  5° 11' 1" W  View metadata report for BODC series reference number 398538
3985511989-05-02 10:00 55° 13' 58" N  5° 12' 58" W  View metadata report for BODC series reference number 398551
3985631989-05-02 11:06 55° 21' 24" N  5° 3' 6" W  View metadata report for BODC series reference number 398563
3985751989-05-02 11:39 55° 20' 6" N  5° 5' 23" W  View metadata report for BODC series reference number 398575
3985871989-05-02 12:21 55° 18' 24" N  5° 6' 48" W  View metadata report for BODC series reference number 398587
3985991989-05-02 12:55 55° 16' 59" N  5° 9' 0" W  View metadata report for BODC series reference number 398599
3986061989-05-02 13:36 55° 15' 31" N  5° 11' 4" W  View metadata report for BODC series reference number 398606
3986181989-05-02 14:09 55° 13' 54" N  5° 12' 47" W  View metadata report for BODC series reference number 398618
3986311989-05-02 15:21 55° 21' 34" N  5° 2' 59" W  View metadata report for BODC series reference number 398631
3986431989-05-02 15:40 55° 19' 58" N  5° 5' 3" W  View metadata report for BODC series reference number 398643
3986551989-05-02 16:14 55° 18' 30" N  5° 7' 0" W  View metadata report for BODC series reference number 398655
3986671989-05-02 16:32 55° 16' 59" N  5° 9' 1" W  View metadata report for BODC series reference number 398667
3986791989-05-02 16:48 55° 15' 31" N  5° 11' 2" W  View metadata report for BODC series reference number 398679
3986801989-05-02 17:04 55° 13' 58" N  5° 12' 58" W  View metadata report for BODC series reference number 398680
3986921989-05-03 07:47 55° 21' 31" N  5° 2' 58" W  View metadata report for BODC series reference number 398692
3987111989-05-03 08:07 55° 19' 59" N  5° 4' 58" W  View metadata report for BODC series reference number 398711
3987231989-05-03 08:32 55° 18' 33" N  5° 7' 0" W  View metadata report for BODC series reference number 398723
3987351989-05-03 08:55 55° 17' 1" N  5° 8' 55" W  View metadata report for BODC series reference number 398735
3987471989-05-03 09:13 55° 15' 29" N  5° 11' 0" W  View metadata report for BODC series reference number 398747
3987591989-05-03 09:30 55° 13' 59" N  5° 12' 57" W  View metadata report for BODC series reference number 398759
3987601989-05-03 09:52 55° 12' 25" N  5° 16' 31" W  View metadata report for BODC series reference number 398760
3987721989-05-03 10:21 55° 10' 46" N  5° 19' 40" W  View metadata report for BODC series reference number 398772
3987841989-05-03 10:46 55° 9' 24" N  5° 22' 44" W  View metadata report for BODC series reference number 398784
3987961989-05-03 11:28 55° 8' 1" N  5° 25' 39" W  View metadata report for BODC series reference number 398796
3988031989-05-03 11:55 55° 6' 34" N  5° 28' 43" W  View metadata report for BODC series reference number 398803
3988151989-05-03 12:18 55° 8' 53" N  5° 29' 59" W  View metadata report for BODC series reference number 398815
3988271989-05-03 12:34 55° 11' 13" N  5° 29' 59" W  View metadata report for BODC series reference number 398827
3988391989-05-03 12:53 55° 13' 32" N  5° 30' 2" W  View metadata report for BODC series reference number 398839
3988401989-05-03 13:08 55° 15' 48" N  5° 30' 2" W  View metadata report for BODC series reference number 398840
3988521989-05-03 14:25 55° 18' 1" N  5° 30' 2" W  View metadata report for BODC series reference number 398852
3982011989-04-30 08:50 55° 10' 32" N  5° 10' 0" W  View metadata report for BODC series reference number 398201
3982131989-04-30 10:09 55° 4' 59" N  5° 19' 56" W  View metadata report for BODC series reference number 398213
3982251989-04-30 11:11 55° 6' 40" N  5° 17' 6" W  View metadata report for BODC series reference number 398225
3982371989-04-30 12:23 55° 11' 34" N  5° 6' 36" W  View metadata report for BODC series reference number 398237
3982491989-04-30 13:07 55° 15' 1" N  5° 15' 0" W  View metadata report for BODC series reference number 398249
3982501989-04-30 13:52 55° 13' 34" N  5° 18' 33" W  View metadata report for BODC series reference number 398250
3982621989-04-30 14:22 55° 12' 13" N  5° 21' 18" W  View metadata report for BODC series reference number 398262
3982741989-04-30 14:59 55° 10' 49" N  5° 24' 41" W  View metadata report for BODC series reference number 398274
3982861989-04-30 15:40 55° 13' 50" N  5° 31' 49" W  View metadata report for BODC series reference number 398286
3982981989-04-30 16:19 55° 15' 19" N  5° 28' 24" W  View metadata report for BODC series reference number 398298
3983051989-04-30 17:00 55° 18' 17" N  5° 22' 12" W  View metadata report for BODC series reference number 398305
3983171989-05-01 08:22 55° 18' 2" N  5° 9' 6" W  View metadata report for BODC series reference number 398317
3983291989-05-01 08:45 55° 16' 41" N  5° 12' 0" W  View metadata report for BODC series reference number 398329
3983301989-05-01 09:23 55° 15' 0" N  5° 15' 13" W  View metadata report for BODC series reference number 398330
3983421989-05-01 10:17 55° 18' 2" N  5° 9' 1" W  View metadata report for BODC series reference number 398342
3983541989-05-01 10:38 55° 19' 31" N  5° 5' 44" W  View metadata report for BODC series reference number 398354
3983661989-05-01 11:27 55° 17' 58" N  5° 8' 59" W  View metadata report for BODC series reference number 398366
3983781989-05-01 11:39 55° 17' 15" N  5° 10' 37" W  View metadata report for BODC series reference number 398378
3983911989-05-01 12:06 55° 16' 39" N  5° 12' 4" W  View metadata report for BODC series reference number 398391
3984091989-05-01 12:47 55° 13' 42" N  5° 18' 27" W  View metadata report for BODC series reference number 398409
3984101989-05-01 13:14 55° 12' 9" N  5° 21' 43" W  View metadata report for BODC series reference number 398410
3984221989-05-01 13:38 55° 10' 41" N  5° 24' 45" W  View metadata report for BODC series reference number 398422
3984341989-05-01 15:15 55° 19' 31" N  5° 5' 43" W  View metadata report for BODC series reference number 398434
3984461989-05-01 15:32 55° 18' 2" N  5° 8' 57" W  View metadata report for BODC series reference number 398446
3984581989-05-01 15:43 55° 17' 22" N  5° 10' 36" W  View metadata report for BODC series reference number 398458
3984711989-05-01 16:14 55° 16' 41" N  5° 11' 53" W  View metadata report for BODC series reference number 398471
3984831989-05-01 16:29 55° 15' 44" N  5° 13' 45" W  View metadata report for BODC series reference number 398483
3984951989-05-02 08:38 55° 21' 27" N  5° 2' 54" W  View metadata report for BODC series reference number 398495
3985021989-05-02 08:53 55° 19' 59" N  5° 4' 56" W  View metadata report for BODC series reference number 398502